createdAt,value
2023-05-24T00:19:59.908Z,38.61
2023-05-24T00:20:59.892Z,38.58
2023-05-24T00:21:59.871Z,38.55
2023-05-24T00:22:59.863Z,38.55
2023-05-24T00:24:00.087Z,38.44
2023-05-24T00:24:59.862Z,38.47
2023-05-24T00:25:59.847Z,38.46
2023-05-24T00:26:59.847Z,38.47
2023-05-24T00:27:59.844Z,38.44
2023-05-24T00:29:00.109Z,38.43
2023-05-24T00:29:59.816Z,38.42
2023-05-24T00:30:59.822Z,38.41
2023-05-24T00:31:59.853Z,38.43
2023-05-24T00:32:59.861Z,38.43
2023-05-24T00:34:00.072Z,38.42
2023-05-24T00:34:59.777Z,38.34
2023-05-24T00:35:59.787Z,38.37
2023-05-24T00:36:59.770Z,38.40
2023-05-24T00:37:59.770Z,38.41
2023-05-24T00:38:59.789Z,38.41
2023-05-24T00:39:59.748Z,38.33
2023-05-24T00:40:59.736Z,38.37
2023-05-24T00:41:59.731Z,38.34
2023-05-24T00:42:59.731Z,38.40
2023-05-24T00:43:59.726Z,38.37
2023-05-24T00:44:59.727Z,38.33
2023-05-24T00:45:59.774Z,38.33
2023-05-24T00:46:59.701Z,38.33
2023-05-24T00:47:59.733Z,38.34
2023-05-24T00:48:59.687Z,38.37
2023-05-24T00:49:59.696Z,38.28
2023-05-24T00:50:59.669Z,38.32
2023-05-24T00:51:59.679Z,38.27
2023-05-24T00:52:59.679Z,38.24
2023-05-24T00:53:59.650Z,38.28
2023-05-24T00:54:59.646Z,38.28
2023-05-24T00:55:59.646Z,38.26
2023-05-24T00:56:59.627Z,38.29
2023-05-24T00:57:59.646Z,38.24
2023-05-24T00:58:59.616Z,38.23
2023-05-24T00:59:59.613Z,38.27
2023-05-24T01:00:59.610Z,38.29
2023-05-24T01:01:59.699Z,38.23
2023-05-24T01:02:59.668Z,38.25
2023-05-24T01:03:59.814Z,38.32
2023-05-24T01:04:59.567Z,38.22
2023-05-24T01:05:59.556Z,38.20
2023-05-24T01:06:59.551Z,38.19
2023-05-24T01:07:59.558Z,38.19
2023-05-24T01:08:59.545Z,38.24
2023-05-24T01:09:59.558Z,38.16
2023-05-24T01:10:59.529Z,38.20
2023-05-24T01:11:59.536Z,38.29
2023-05-24T01:12:59.526Z,38.19
2023-05-24T01:13:59.513Z,38.24
2023-05-24T01:14:59.521Z,38.23
2023-05-24T01:15:59.528Z,38.22
2023-05-24T01:16:59.488Z,38.24
2023-05-24T01:17:59.521Z,38.15
2023-05-24T01:18:59.480Z,38.19
2023-05-24T01:19:59.496Z,38.22
2023-05-24T01:20:59.461Z,38.02
2023-05-24T01:21:59.448Z,38.17
2023-05-24T01:22:59.444Z,38.17
2023-05-24T01:23:59.435Z,38.18
2023-05-24T01:24:59.441Z,38.17
2023-05-24T01:25:59.425Z,38.19
2023-05-24T01:26:59.418Z,38.19
2023-05-24T01:27:59.424Z,38.18
2023-05-24T01:28:59.411Z,38.14
2023-05-24T01:29:59.456Z,38.17
2023-05-24T01:30:59.434Z,38.18
2023-05-24T01:31:59.370Z,38.18
2023-05-24T01:32:59.403Z,38.14
2023-05-24T01:33:59.372Z,38.05
2023-05-24T01:34:59.381Z,38.14
2023-05-24T01:35:59.371Z,38.14
2023-05-24T01:36:59.369Z,38.07
2023-05-24T01:37:59.339Z,38.11
2023-05-24T01:38:59.331Z,38.09
2023-05-24T01:39:59.338Z,38.10
2023-05-24T01:40:59.344Z,38.15
2023-05-24T01:41:59.306Z,38.17
2023-05-24T01:42:59.302Z,38.16
2023-05-24T01:43:59.309Z,38.14
2023-05-24T01:44:59.300Z,38.02
2023-05-24T01:45:59.309Z,38.06
2023-05-24T01:46:59.329Z,38.10
2023-05-24T01:47:59.385Z,38.10
2023-05-24T01:48:59.287Z,38.05
2023-05-24T01:49:59.285Z,38.09
2023-05-24T01:50:59.265Z,38.11
2023-05-24T01:51:59.363Z,38.07
2023-05-24T01:52:59.284Z,38.06
2023-05-24T01:53:59.317Z,38.06
2023-05-24T01:54:59.317Z,38.09
2023-05-24T01:55:59.349Z,38.02
2023-05-24T01:56:59.355Z,38.07
2023-05-24T01:57:59.382Z,38.09
2023-05-24T01:58:59.396Z,38.01
2023-05-24T01:59:59.405Z,38.03
2023-05-24T02:00:59.456Z,38.05
2023-05-24T02:01:59.440Z,38.06
2023-05-24T02:02:59.546Z,38.05
2023-05-24T02:03:59.441Z,38.06
2023-05-24T02:04:59.458Z,37.98
2023-05-24T02:05:59.470Z,37.97
2023-05-24T02:06:59.478Z,38.01
2023-05-24T02:07:59.509Z,38.01
2023-05-24T02:08:59.516Z,38.04
2023-05-24T02:09:59.511Z,37.93
2023-05-24T02:10:59.539Z,38.02
2023-05-24T02:11:59.546Z,37.97
2023-05-24T02:12:59.638Z,37.95
2023-05-24T02:13:59.603Z,37.96
2023-05-24T02:14:59.589Z,38.02
2023-05-24T02:15:59.619Z,37.97
2023-05-24T02:16:59.669Z,37.98
2023-05-24T02:17:59.694Z,37.98
2023-05-24T02:18:59.663Z,37.94
2023-05-24T02:19:59.737Z,37.87
2023-05-24T02:20:59.701Z,37.97
2023-05-24T02:21:59.701Z,37.98
2023-05-24T02:22:59.718Z,37.90
2023-05-24T02:23:59.733Z,37.95
2023-05-24T02:24:59.738Z,37.86
2023-05-24T02:25:59.779Z,37.90
2023-05-24T02:26:59.773Z,37.93
2023-05-24T02:27:59.805Z,37.89
2023-05-24T02:28:59.810Z,37.90
2023-05-24T02:29:59.817Z,37.86
2023-05-24T02:30:59.855Z,37.89
2023-05-24T02:31:59.853Z,37.92
2023-05-24T02:32:59.944Z,37.90
2023-05-24T02:33:59.891Z,37.86
2023-05-24T02:34:59.910Z,37.94
2023-05-24T02:35:59.927Z,37.92
2023-05-24T02:36:59.935Z,37.92
2023-05-24T02:37:59.973Z,37.89
2023-05-24T02:38:59.976Z,37.86
2023-05-24T02:39:59.992Z,37.82
2023-05-24T02:41:00.008Z,37.89
2023-05-24T02:42:00.104Z,37.87
2023-05-24T02:43:00.060Z,37.85
2023-05-24T02:44:00.101Z,37.86
2023-05-24T02:45:00.114Z,37.86
2023-05-24T02:46:00.152Z,37.82
2023-05-24T02:47:00.154Z,37.81
2023-05-24T02:48:00.340Z,37.85
2023-05-24T02:49:00.232Z,37.86
2023-05-24T02:50:00.216Z,37.80
2023-05-24T02:51:00.216Z,37.83
2023-05-24T02:52:00.248Z,37.84
2023-05-24T02:53:00.262Z,37.86
2023-05-24T02:54:00.272Z,37.81
2023-05-24T02:55:00.299Z,37.85
2023-05-24T02:56:00.305Z,37.81
2023-05-24T02:57:00.330Z,37.81
2023-05-24T02:58:00.344Z,37.76
2023-05-24T02:59:00.371Z,37.80
2023-05-24T03:00:00.390Z,37.78
2023-05-24T03:01:00.410Z,37.76
2023-05-24T03:02:00.471Z,37.77
2023-05-24T03:03:00.531Z,37.74
2023-05-24T03:04:00.595Z,37.74
2023-05-24T03:05:00.499Z,37.76
2023-05-24T03:06:00.538Z,37.75
2023-05-24T03:07:00.520Z,37.81
2023-05-24T03:08:00.555Z,37.73
2023-05-24T03:09:00.580Z,37.79
2023-05-24T03:10:00.632Z,37.77
2023-05-24T03:11:00.626Z,37.76
2023-05-24T03:12:00.628Z,37.81
2023-05-24T03:13:00.656Z,37.74
2023-05-24T03:14:00.658Z,37.77
2023-05-24T03:15:00.678Z,37.77
2023-05-24T03:16:00.805Z,37.74
2023-05-24T03:17:00.713Z,37.79
2023-05-24T03:18:00.770Z,37.73
2023-05-24T03:19:00.740Z,37.78
2023-05-24T03:20:00.779Z,37.77
2023-05-24T03:21:00.805Z,37.75
2023-05-24T03:22:00.794Z,37.73
2023-05-24T03:23:00.816Z,37.79
2023-05-24T03:24:00.822Z,37.75
2023-05-24T03:25:00.856Z,37.79
2023-05-24T03:26:00.890Z,37.72
2023-05-24T03:27:00.891Z,37.73
2023-05-24T03:28:00.925Z,37.74
2023-05-24T03:29:00.962Z,37.75
2023-05-24T03:30:00.961Z,37.77
2023-05-24T03:31:01.015Z,37.74
2023-05-24T03:32:01.055Z,37.74
2023-05-24T03:33:01.071Z,37.73
2023-05-24T03:34:01.045Z,37.77
2023-05-24T03:35:01.053Z,37.67
2023-05-24T03:36:01.109Z,37.74
2023-05-24T03:37:01.089Z,37.74
2023-05-24T03:38:01.100Z,37.77
2023-05-24T03:39:01.123Z,37.75
2023-05-24T03:40:01.155Z,37.68
2023-05-24T03:41:01.170Z,37.73
2023-05-24T03:42:01.194Z,37.74
2023-05-24T03:43:03.008Z,37.79
2023-05-24T03:44:01.203Z,37.74
2023-05-24T03:45:01.196Z,37.74
2023-05-24T03:46:01.297Z,37.78
2023-05-24T03:47:01.177Z,37.71
2023-05-24T03:48:01.225Z,37.70
2023-05-24T03:49:01.176Z,37.75
2023-05-24T03:50:01.160Z,37.73
2023-05-24T03:51:01.151Z,37.70
2023-05-24T03:52:01.153Z,37.66
2023-05-24T03:53:01.155Z,37.73
2023-05-24T03:54:01.146Z,37.69
2023-05-24T03:55:01.119Z,37.66
2023-05-24T03:56:01.129Z,37.65
2023-05-24T03:57:01.120Z,37.66
2023-05-24T03:58:01.106Z,37.64
2023-05-24T03:59:01.118Z,37.70
2023-05-24T04:00:01.097Z,37.66
2023-05-24T04:01:01.111Z,37.66
2023-05-24T04:02:01.126Z,37.68
2023-05-24T04:03:01.170Z,37.59
2023-05-24T04:04:01.113Z,37.57
2023-05-24T04:05:01.062Z,37.63
2023-05-24T04:06:01.056Z,37.69
2023-05-24T04:07:01.065Z,37.63
2023-05-24T04:08:01.042Z,37.66
2023-05-24T04:09:01.032Z,37.70
2023-05-24T04:10:01.039Z,37.64
2023-05-24T04:11:01.034Z,37.66
2023-05-24T04:12:01.034Z,37.63
2023-05-24T04:13:00.999Z,37.64
2023-05-24T04:14:01.005Z,37.68
2023-05-24T04:15:00.997Z,37.65
2023-05-24T04:16:00.985Z,37.65
2023-05-24T04:17:01.143Z,37.63
2023-05-24T04:18:01.037Z,37.67
2023-05-24T04:19:01.062Z,37.61
2023-05-24T04:20:00.983Z,37.68
2023-05-24T04:21:00.951Z,37.71
2023-05-24T04:22:00.936Z,37.69
2023-05-24T04:23:00.948Z,37.69
2023-05-24T04:24:00.920Z,37.60
2023-05-24T04:25:00.943Z,37.65
2023-05-24T04:26:00.910Z,37.63
2023-05-24T04:27:00.923Z,37.69
2023-05-24T04:28:00.892Z,37.67
2023-05-24T04:29:00.896Z,37.61
2023-05-24T04:30:00.888Z,37.67
2023-05-24T04:31:00.930Z,37.66
2023-05-24T04:32:00.887Z,37.66
2023-05-24T04:33:00.919Z,37.65
2023-05-24T04:34:00.850Z,37.64
2023-05-24T04:35:00.835Z,37.67
2023-05-24T04:36:00.842Z,37.63
2023-05-24T04:37:00.836Z,37.68
2023-05-24T04:38:00.850Z,37.63
2023-05-24T04:39:00.822Z,37.66
2023-05-24T04:40:00.817Z,37.65
2023-05-24T04:41:00.813Z,37.62
2023-05-24T04:42:00.819Z,37.61
2023-05-24T04:43:00.792Z,37.62
2023-05-24T04:44:00.790Z,37.65
2023-05-24T04:45:00.797Z,37.66
2023-05-24T04:46:00.768Z,37.64
2023-05-24T04:47:00.822Z,37.63
2023-05-24T04:48:00.866Z,37.64
2023-05-24T04:49:00.745Z,37.61
2023-05-24T04:50:00.745Z,37.58
2023-05-24T04:51:00.723Z,37.59
2023-05-24T04:52:00.729Z,37.59
2023-05-24T04:53:00.713Z,37.62
2023-05-24T04:54:00.715Z,37.61
2023-05-24T04:55:00.731Z,37.54
2023-05-24T04:56:00.689Z,37.61
2023-05-24T04:57:00.701Z,37.55
2023-05-24T04:58:00.797Z,37.62
2023-05-24T04:59:00.673Z,37.61
2023-05-24T05:00:00.688Z,37.58
2023-05-24T05:01:00.665Z,37.58
2023-05-24T05:02:00.776Z,37.59
2023-05-24T05:03:00.741Z,37.55
2023-05-24T05:04:00.737Z,37.59
2023-05-24T05:05:00.629Z,37.55
2023-05-24T05:06:00.630Z,37.56
2023-05-24T05:07:00.613Z,37.58
2023-05-24T05:08:00.619Z,37.57
2023-05-24T05:09:00.598Z,37.61
2023-05-24T05:10:00.601Z,37.49
2023-05-24T05:11:00.584Z,37.55
2023-05-24T05:12:00.604Z,37.62
2023-05-24T05:13:00.604Z,37.58
2023-05-24T05:14:00.634Z,37.56
2023-05-24T05:15:00.663Z,37.62
2023-05-24T05:16:00.664Z,37.55
2023-05-24T05:17:00.687Z,37.55
2023-05-24T05:18:00.755Z,37.62
2023-05-24T05:19:00.724Z,37.59
2023-05-24T05:20:00.787Z,37.56
2023-05-24T05:21:00.789Z,37.61
2023-05-24T05:22:00.813Z,37.58
2023-05-24T05:23:00.803Z,37.51
2023-05-24T05:24:00.838Z,37.55
2023-05-24T05:25:00.860Z,37.57
2023-05-24T05:26:00.868Z,37.62
2023-05-24T05:27:00.873Z,37.57
2023-05-24T05:28:00.921Z,37.58
2023-05-24T05:29:00.999Z,37.54
2023-05-24T05:30:00.922Z,37.57
2023-05-24T05:31:01.012Z,37.58
2023-05-24T05:32:01.012Z,37.62
2023-05-24T05:33:01.098Z,37.53
2023-05-24T05:34:01.048Z,37.59
2023-05-24T05:35:01.119Z,37.78
2023-05-24T05:36:01.270Z,37.99
2023-05-24T05:37:01.115Z,38.50
2023-05-24T05:38:01.160Z,39.39
2023-05-24T05:39:01.131Z,39.58
2023-05-24T05:40:01.235Z,39.76
2023-05-24T05:41:01.231Z,40.13
2023-05-24T05:42:01.184Z,40.76
2023-05-24T05:43:01.204Z,40.53
2023-05-24T05:44:01.208Z,40.57
2023-05-24T05:45:01.263Z,40.33
2023-05-24T05:46:01.254Z,39.95
2023-05-24T05:47:01.231Z,39.99
2023-05-24T05:48:01.262Z,39.97
2023-05-24T05:49:01.240Z,39.79
2023-05-24T05:50:01.249Z,39.72
2023-05-24T05:51:01.288Z,39.84
2023-05-24T05:52:01.253Z,39.60
2023-05-24T05:53:01.281Z,39.73
2023-05-24T05:54:01.260Z,39.51
2023-05-24T05:55:01.269Z,39.58
2023-05-24T05:56:02.251Z,39.46
2023-05-24T05:57:01.716Z,39.61
2023-05-24T05:58:01.362Z,39.66
2023-05-24T05:59:01.306Z,39.55
2023-05-24T06:00:01.360Z,39.56
2023-05-24T06:01:01.401Z,39.43
2023-05-24T06:02:01.385Z,39.35
2023-05-24T06:03:01.397Z,39.36
2023-05-24T06:04:01.423Z,39.59
2023-05-24T06:05:01.435Z,39.51
2023-05-24T06:06:01.418Z,39.45
2023-05-24T06:07:01.485Z,39.63
2023-05-24T06:08:01.435Z,39.31
2023-05-24T06:09:01.453Z,39.36
2023-05-24T06:10:01.491Z,39.45
2023-05-24T06:11:01.495Z,39.46
2023-05-24T06:12:01.555Z,39.44
2023-05-24T06:13:01.640Z,39.40
2023-05-24T06:14:01.590Z,39.26
2023-05-24T06:15:01.603Z,39.39
2023-05-24T06:16:01.752Z,39.37
2023-05-24T06:17:01.633Z,39.32
2023-05-24T06:18:01.727Z,39.04
2023-05-24T06:19:06.376Z,39.24
2023-05-24T06:20:02.706Z,39.32
2023-05-24T06:21:01.680Z,39.14
2023-05-24T06:22:01.744Z,39.30
2023-05-24T06:23:01.659Z,39.31
2023-05-24T06:24:01.658Z,39.29
2023-05-24T06:25:01.670Z,39.27
2023-05-24T06:26:01.718Z,39.02
2023-05-24T06:27:03.259Z,39.15
2023-05-24T06:28:01.614Z,39.11
2023-05-24T06:29:01.619Z,39.10
2023-05-24T06:30:01.705Z,39.14
2023-05-24T06:31:01.634Z,39.10
2023-05-24T06:32:01.620Z,39.00
2023-05-24T06:33:01.689Z,39.04
2023-05-24T06:34:04.233Z,39.15
2023-05-24T06:35:01.575Z,39.07
2023-05-24T06:36:01.666Z,39.90
2023-05-24T06:37:01.557Z,40.19
2023-05-24T06:38:01.558Z,40.31
2023-05-24T06:39:01.582Z,41.30
2023-05-24T06:40:01.575Z,41.59
2023-05-24T06:41:01.584Z,41.76
2023-05-24T06:42:01.550Z,41.96
2023-05-24T06:43:01.540Z,41.95
2023-05-24T06:44:01.522Z,42.00
2023-05-24T06:45:01.571Z,42.47
2023-05-24T06:46:01.741Z,42.26
2023-05-24T06:47:01.537Z,42.47
2023-05-24T06:48:01.649Z,42.39
2023-05-24T06:49:01.595Z,42.74
2023-05-24T06:50:01.576Z,42.72
2023-05-24T06:51:01.737Z,42.72
2023-05-24T06:52:01.762Z,42.87
2023-05-24T06:53:01.470Z,42.94
2023-05-24T06:54:01.458Z,43.06
2023-05-24T06:55:01.479Z,43.08
2023-05-24T06:56:01.443Z,43.40
2023-05-24T06:57:01.490Z,43.32
2023-05-24T06:58:01.456Z,43.37
2023-05-24T06:59:01.471Z,43.40
2023-05-24T07:00:01.607Z,43.44
2023-05-24T07:01:01.463Z,43.55
2023-05-24T07:02:03.683Z,43.51
2023-05-24T07:03:01.450Z,43.49
2023-05-24T07:04:01.477Z,43.64
2023-05-24T07:05:01.439Z,43.54
2023-05-24T07:06:01.406Z,43.65
2023-05-24T07:07:01.417Z,43.81
2023-05-24T07:08:01.396Z,43.21
2023-05-24T07:09:01.375Z,42.65
2023-05-24T07:10:01.377Z,42.02
2023-05-24T07:11:01.382Z,42.38
2023-05-24T07:12:01.358Z,42.30
2023-05-24T07:13:01.347Z,42.11
2023-05-24T07:14:01.371Z,42.52
2023-05-24T07:15:01.336Z,42.64
2023-05-24T07:16:01.395Z,42.69
2023-05-24T07:17:01.401Z,42.66
2023-05-24T07:18:01.369Z,42.58
2023-05-24T07:19:03.976Z,42.61
2023-05-24T07:20:01.476Z,42.57
2023-05-24T07:21:01.447Z,42.61
2023-05-24T07:22:01.293Z,42.70
2023-05-24T07:23:01.283Z,42.55
2023-05-24T07:24:01.304Z,42.46
2023-05-24T07:25:01.328Z,42.55
2023-05-24T07:26:01.266Z,42.60
2023-05-24T07:27:01.275Z,42.61
2023-05-24T07:28:01.236Z,42.65
2023-05-24T07:29:01.250Z,42.59
2023-05-24T07:30:01.294Z,42.46
2023-05-24T07:31:01.223Z,42.58
2023-05-24T07:32:01.397Z,42.57
2023-05-24T07:33:01.665Z,42.45
2023-05-24T07:34:01.236Z,42.59
2023-05-24T07:35:01.197Z,42.69
2023-05-24T07:36:01.186Z,42.48
2023-05-24T07:37:01.208Z,42.48
2023-05-24T07:38:01.238Z,42.64
2023-05-24T07:39:01.240Z,42.49
2023-05-24T07:40:01.159Z,42.55
2023-05-24T07:41:01.157Z,42.60
2023-05-24T07:42:01.157Z,42.66
2023-05-24T07:43:01.600Z,42.48
2023-05-24T07:44:01.158Z,42.69
2023-05-24T07:45:01.131Z,42.57
2023-05-24T07:46:01.137Z,42.38
2023-05-24T07:47:01.106Z,42.33
2023-05-24T07:48:01.175Z,42.37
2023-05-24T07:49:01.120Z,42.19
2023-05-24T07:50:01.090Z,42.23
2023-05-24T07:51:01.090Z,41.99
2023-05-24T07:52:01.093Z,41.96
2023-05-24T07:53:01.160Z,42.03
2023-05-24T07:54:01.240Z,42.08
2023-05-24T07:55:01.072Z,42.08
2023-05-24T07:56:01.095Z,41.97
2023-05-24T07:57:01.049Z,41.96
2023-05-24T07:58:01.082Z,41.98
2023-05-24T07:59:01.041Z,41.99
2023-05-24T08:00:01.033Z,42.05
2023-05-24T08:01:01.042Z,42.08
2023-05-24T08:02:01.026Z,42.05
2023-05-24T08:03:01.133Z,42.01
2023-05-24T08:04:01.160Z,41.81
2023-05-24T08:05:00.996Z,41.99
2023-05-24T08:06:00.987Z,41.97
2023-05-24T08:07:01.003Z,42.04
2023-05-24T08:08:00.973Z,41.90
2023-05-24T08:09:00.966Z,41.96
2023-05-24T08:10:00.961Z,42.02
2023-05-24T08:11:00.967Z,41.95
2023-05-24T08:12:01.029Z,41.92
2023-05-24T08:13:01.073Z,41.90
2023-05-24T08:14:01.051Z,41.91
2023-05-24T08:15:01.105Z,41.87
2023-05-24T08:16:01.163Z,41.86
2023-05-24T08:17:01.214Z,41.86
2023-05-24T08:18:01.285Z,41.88
2023-05-24T08:19:01.287Z,41.97
2023-05-24T08:20:01.584Z,42.00
2023-05-24T08:21:01.419Z,41.88
2023-05-24T08:22:01.466Z,41.96
2023-05-24T08:23:01.515Z,42.03
2023-05-24T08:24:01.570Z,42.07
2023-05-24T08:25:01.662Z,42.09
2023-05-24T08:26:01.717Z,42.00
2023-05-24T08:27:01.754Z,41.76
2023-05-24T08:28:01.870Z,40.28
2023-05-24T08:29:01.872Z,39.50
2023-05-24T08:30:01.994Z,39.20
2023-05-24T08:31:01.996Z,38.70
2023-05-24T08:32:02.383Z,38.57
2023-05-24T08:33:02.110Z,38.19
2023-05-24T08:34:02.059Z,38.08
2023-05-24T08:35:17.503Z,38.04
2023-05-24T08:36:03.074Z,38.00
2023-05-24T08:37:02.000Z,37.90
2023-05-24T08:38:02.066Z,37.89
2023-05-24T08:39:01.976Z,37.84
2023-05-24T08:40:01.962Z,37.76
2023-05-24T08:41:02.029Z,37.76
2023-05-24T08:43:01.966Z,39.20
2023-05-24T08:44:01.948Z,39.36
2023-05-24T08:45:01.933Z,40.57
2023-05-24T08:46:02.838Z,40.93
2023-05-24T08:47:01.951Z,41.23
2023-05-24T08:48:01.989Z,41.26
2023-05-24T08:49:01.960Z,41.48
2023-05-24T08:50:01.903Z,41.53
2023-05-24T08:51:02.345Z,41.81
2023-05-24T08:52:02.316Z,41.89
2023-05-24T08:53:01.907Z,41.79
2023-05-24T08:54:01.934Z,41.95
2023-05-24T08:55:01.887Z,41.81
2023-05-24T08:56:02.369Z,41.73
2023-05-24T08:57:01.911Z,41.82
2023-05-24T08:58:01.904Z,41.56
2023-05-24T08:59:01.976Z,41.60
2023-05-24T09:00:01.924Z,41.65
2023-05-24T09:01:01.871Z,41.46
2023-05-24T09:02:01.888Z,41.23
2023-05-24T09:03:01.844Z,41.14
2023-05-24T09:04:01.853Z,41.01
2023-05-24T09:05:01.812Z,40.90
2023-05-24T09:06:01.907Z,40.75
2023-05-24T09:07:01.793Z,40.65
2023-05-24T09:08:01.814Z,40.50
2023-05-24T09:09:01.782Z,40.49
2023-05-24T09:10:01.789Z,40.06
2023-05-24T09:11:01.894Z,40.07
2023-05-24T09:12:01.777Z,40.09
2023-05-24T09:13:01.820Z,39.82
2023-05-24T09:14:01.806Z,39.82
2023-05-24T09:15:01.778Z,39.68
2023-05-24T09:16:01.787Z,39.58
2023-05-24T09:17:01.756Z,39.55
2023-05-24T09:18:01.782Z,39.47
2023-05-24T09:19:01.787Z,39.27
2023-05-24T09:20:01.778Z,39.29
2023-05-24T09:21:01.703Z,39.14
2023-05-24T09:22:01.699Z,39.05
2023-05-24T09:23:01.691Z,38.91
2023-05-24T09:24:01.685Z,38.81
2023-05-24T09:25:01.689Z,38.73
2023-05-24T09:26:01.662Z,38.49
2023-05-24T09:27:01.701Z,38.56
2023-05-24T09:28:01.794Z,38.54
2023-05-24T09:29:01.884Z,38.39
2023-05-24T09:30:01.895Z,38.56
2023-05-24T09:31:03.934Z,38.51
2023-05-24T09:32:02.002Z,38.67
2023-05-24T09:33:02.035Z,38.67
2023-05-24T09:34:01.949Z,38.59
2023-05-24T09:35:01.985Z,39.00
2023-05-24T09:36:01.965Z,39.02
2023-05-24T09:37:02.336Z,38.67
2023-05-24T09:38:01.971Z,38.55
2023-05-24T09:39:01.896Z,38.59
2023-05-24T09:40:01.986Z,38.53
2023-05-24T09:41:01.907Z,38.35
2023-05-24T09:42:01.910Z,38.31
2023-05-24T09:43:01.938Z,38.40
2023-05-24T09:44:01.863Z,38.31
2023-05-24T09:45:01.933Z,38.26
2023-05-24T09:46:01.859Z,38.07
2023-05-24T09:47:01.992Z,37.99
2023-05-24T09:48:01.915Z,37.92
2023-05-24T09:49:01.871Z,38.03
2023-05-24T09:50:01.848Z,38.02
2023-05-24T09:51:01.884Z,38.20
2023-05-24T09:52:02.476Z,38.17
2023-05-24T09:53:01.824Z,38.27
2023-05-24T09:54:01.823Z,38.21
2023-05-24T09:55:01.809Z,38.14
2023-05-24T09:56:02.077Z,38.22
2023-05-24T09:57:03.470Z,38.03
2023-05-24T09:58:01.795Z,37.99
2023-05-24T09:59:01.810Z,37.75
2023-05-24T10:00:01.913Z,37.79
2023-05-24T10:01:01.839Z,37.81
2023-05-24T10:02:01.851Z,37.91
2023-05-24T10:03:01.828Z,38.06
2023-05-24T10:04:01.869Z,38.04
2023-05-24T10:05:01.771Z,38.02
2023-05-24T10:06:01.730Z,37.83
2023-05-24T10:07:01.834Z,37.78
2023-05-24T10:08:01.725Z,37.67
2023-05-24T10:09:01.728Z,37.92
2023-05-24T10:10:01.735Z,37.91
2023-05-24T10:11:01.708Z,37.93
2023-05-24T10:12:01.859Z,37.92
2023-05-24T10:13:01.743Z,37.95
2023-05-24T10:14:01.721Z,37.71
2023-05-24T10:15:01.698Z,37.54
2023-05-24T10:16:01.690Z,37.55
2023-05-24T10:17:01.724Z,37.57
2023-05-24T10:18:01.896Z,37.64
2023-05-24T10:19:01.653Z,37.78
2023-05-24T10:20:01.701Z,37.83
2023-05-24T10:21:01.922Z,37.60
2023-05-24T10:22:01.650Z,37.75
2023-05-24T10:23:01.988Z,37.69
2023-05-24T10:24:01.618Z,37.48
2023-05-24T10:25:01.616Z,37.62
2023-05-24T10:26:01.612Z,37.70
2023-05-24T10:27:01.837Z,37.65
2023-05-24T10:28:01.647Z,37.73
2023-05-24T10:29:01.600Z,37.94
2023-05-24T10:30:01.692Z,38.03
2023-05-24T10:31:01.742Z,38.05
2023-05-24T10:32:01.852Z,38.01
2023-05-24T10:33:01.586Z,38.21
2023-05-24T10:34:07.587Z,38.12
2023-05-24T10:35:02.572Z,38.08
2023-05-24T10:36:01.537Z,38.08
2023-05-24T10:37:02.334Z,37.96
2023-05-24T10:38:01.548Z,38.08
2023-05-24T10:39:01.577Z,38.17
2023-05-24T10:40:01.505Z,38.17
2023-05-24T10:41:01.586Z,38.09
2023-05-24T10:42:01.488Z,37.76
2023-05-24T10:43:01.497Z,37.16
2023-05-24T10:44:09.913Z,37.24
2023-05-24T10:45:02.474Z,37.29
2023-05-24T10:46:01.512Z,37.43
2023-05-24T10:47:01.462Z,37.67
2023-05-24T10:48:01.511Z,37.94
2023-05-24T10:49:01.452Z,37.93
2023-05-24T10:50:01.458Z,37.95
2023-05-24T10:51:01.423Z,38.06
2023-05-24T10:52:01.499Z,38.11
2023-05-24T10:53:01.423Z,38.09
2023-05-24T10:54:01.501Z,38.18
2023-05-24T10:55:04.416Z,38.15
2023-05-24T10:56:01.424Z,38.15
2023-05-24T10:57:01.413Z,38.11
2023-05-24T10:58:01.405Z,38.28
2023-05-24T10:59:01.407Z,38.28
2023-05-24T11:00:01.398Z,38.31
2023-05-24T11:01:01.386Z,38.30
2023-05-24T11:02:01.448Z,38.35
2023-05-24T11:03:01.489Z,38.45
2023-05-24T11:04:01.376Z,38.42
2023-05-24T11:05:01.399Z,38.47
2023-05-24T11:06:01.433Z,38.47
2023-05-24T11:07:01.364Z,38.40
2023-05-24T11:08:01.349Z,38.45
2023-05-24T11:09:01.363Z,38.13
2023-05-24T11:10:01.388Z,38.30
2023-05-24T11:11:11.468Z,38.35
2023-05-24T11:12:02.323Z,38.46
2023-05-24T11:13:01.340Z,38.51
2023-05-24T11:14:01.385Z,38.62
2023-05-24T11:15:01.297Z,38.62
2023-05-24T11:16:01.403Z,38.63
2023-05-24T11:17:01.303Z,38.96
2023-05-24T11:18:01.379Z,39.04
2023-05-24T11:19:01.253Z,39.19
2023-05-24T11:20:01.325Z,39.16
2023-05-24T11:21:01.306Z,39.16
2023-05-24T11:41:51.817Z,39.47
2023-05-24T11:42:51.718Z,39.41
2023-05-24T11:43:51.702Z,39.38
2023-05-24T11:44:51.699Z,39.37
2023-05-24T11:45:51.720Z,39.37
2023-05-24T11:46:51.710Z,39.37
2023-05-24T11:47:51.710Z,39.38
2023-05-24T11:48:51.678Z,39.31
2023-05-24T11:49:51.662Z,39.38
2023-05-24T11:50:52.058Z,39.30
2023-05-24T11:53:10.961Z,39.36
2023-05-24T11:54:10.969Z,39.35
2023-05-24T11:55:11.045Z,39.34
2023-05-24T11:56:11.128Z,39.29
2023-05-24T11:57:11.254Z,39.31
2023-05-24T11:58:11.254Z,39.30
2023-05-24T11:59:11.318Z,39.26
2023-05-24T12:00:11.523Z,39.36
2023-05-24T12:01:11.458Z,39.27
2023-05-24T12:02:11.538Z,39.31
2023-05-24T12:03:11.612Z,39.25
2023-05-24T12:04:12.135Z,39.28
2023-05-24T12:05:11.655Z,39.27
2023-05-24T12:06:11.701Z,39.26
2023-05-24T12:07:11.762Z,39.23
2023-05-24T12:08:12.703Z,39.23
2023-05-24T12:09:11.896Z,39.24
2023-05-24T12:10:11.932Z,39.23
2023-05-24T12:11:11.994Z,39.21
2023-05-24T12:12:12.075Z,39.21
2023-05-24T12:13:12.135Z,39.25
2023-05-24T12:14:12.179Z,39.25
2023-05-24T12:15:12.252Z,39.18
2023-05-24T12:16:12.367Z,39.18
2023-05-24T12:17:12.367Z,39.22
2023-05-24T12:18:12.451Z,39.23
2023-05-24T12:19:23.869Z,39.19
2023-05-24T12:20:13.538Z,39.25
2023-05-24T12:21:12.441Z,39.23
2023-05-24T12:22:12.437Z,39.23
2023-05-24T12:23:12.434Z,39.17
2023-05-24T12:24:12.476Z,39.18
2023-05-24T12:25:12.418Z,39.19
2023-05-24T12:26:12.409Z,39.17
2023-05-24T12:27:12.405Z,39.20
2023-05-24T12:28:12.433Z,39.20
2023-05-24T12:29:12.497Z,39.14
2023-05-24T12:30:12.550Z,39.15
2023-05-24T12:31:12.665Z,39.19
2023-05-24T12:32:13.868Z,39.16
2023-05-24T12:33:12.760Z,39.17
2023-05-24T12:34:12.770Z,39.15
2023-05-24T12:35:12.820Z,39.14
2023-05-24T12:36:12.866Z,39.15
2023-05-24T12:37:13.780Z,39.14
2023-05-24T12:38:12.970Z,39.13
2023-05-24T12:39:13.020Z,39.09
2023-05-24T12:40:13.054Z,39.14
2023-05-24T12:41:14.146Z,39.07
2023-05-24T12:42:13.248Z,39.12
2023-05-24T12:43:13.186Z,39.07
2023-05-24T12:44:13.229Z,39.10
2023-05-24T12:45:13.338Z,39.11
2023-05-24T12:46:13.339Z,39.11
2023-05-24T12:47:13.467Z,39.06
2023-05-24T12:48:13.431Z,39.13
2023-05-24T12:49:13.427Z,39.10
2023-05-24T12:50:13.445Z,39.06
2023-05-24T12:51:13.471Z,39.10
2023-05-24T12:52:13.520Z,39.11
2023-05-24T12:53:13.552Z,39.07
2023-05-24T12:54:13.556Z,39.08
2023-05-24T12:55:13.598Z,39.06
2023-05-24T12:56:13.623Z,39.10
2023-05-24T12:57:13.660Z,39.03
2023-05-24T12:58:13.713Z,39.04
2023-05-24T12:59:13.736Z,39.04
2023-05-24T13:00:13.786Z,39.04
2023-05-24T13:01:13.920Z,39.03
2023-05-24T13:02:13.873Z,39.03
2023-05-24T13:03:13.919Z,39.03
2023-05-24T13:04:13.926Z,39.05
2023-05-24T13:05:13.995Z,39.02
2023-05-24T13:06:13.969Z,39.05
2023-05-24T13:07:13.995Z,39.05
2023-05-24T13:08:14.010Z,39.03
2023-05-24T13:09:14.046Z,39.05
2023-05-24T13:10:14.070Z,39.07
2023-05-24T13:11:14.057Z,39.03
2023-05-24T13:12:14.077Z,39.03
2023-05-24T13:13:14.062Z,39.05
2023-05-24T13:14:14.070Z,39.01
2023-05-24T13:15:14.094Z,39.00
2023-05-24T13:16:14.188Z,39.04
2023-05-24T13:17:14.188Z,39.00
2023-05-24T13:18:14.171Z,39.02
2023-05-24T13:19:14.124Z,38.99
2023-05-24T13:20:14.268Z,39.00
2023-05-24T13:21:14.125Z,39.03
2023-05-24T13:22:14.118Z,39.08
2023-05-24T13:23:14.144Z,39.07
2023-05-24T13:24:14.121Z,38.98
2023-05-24T13:25:14.129Z,39.03
2023-05-24T13:26:14.171Z,38.96
2023-05-24T13:27:14.175Z,39.03
2023-05-24T13:28:14.205Z,39.00
2023-05-24T13:29:30.685Z,38.99
2023-05-24T13:30:15.202Z,38.96
2023-05-24T13:31:14.256Z,38.99
2023-05-24T13:32:14.183Z,38.98
2023-05-24T13:33:14.263Z,38.95
2023-05-24T13:34:14.158Z,38.97